sensor_id;sensor_type;location;lat;lon;timestamp;pressure;altitude;pressure_sealevel;temperature;humidity
7058;BME280;3570;43.080;25.628;2022-09-02T00:01:32;-20099.63;;;22.26;100.00
7058;BME280;3570;43.080;25.628;2022-09-02T00:04:19;-20095.28;;;22.11;100.00
7058;BME280;3570;43.080;25.628;2022-09-02T00:07:04;-20096.13;;;22.14;100.00
7058;BME280;3570;43.080;25.628;2022-09-02T00:09:48;-20098.59;;;22.23;100.00
7058;BME280;3570;43.080;25.628;2022-09-02T00:12:32;-20097.59;;;22.19;100.00
7058;BME280;3570;43.080;25.628;2022-09-02T00:15:17;-20098.59;;;22.23;100.00
7058;BME280;3570;43.080;25.628;2022-09-02T00:18:02;-20093.97;;;22.07;100.00
7058;BME280;3570;43.080;25.628;2022-09-02T00:20:47;-20092.38;;;22.01;100.00
7058;BME280;3570;43.080;25.628;2022-09-02T00:23:31;-20093.84;;;22.06;100.00
7058;BME280;3570;43.080;25.628;2022-09-02T00:26:16;-20085.44;;;21.77;100.00
7058;BME280;3570;43.080;25.628;2022-09-02T00:29:01;-20078.47;;;21.53;100.00
7058;BME280;3570;43.080;25.628;2022-09-02T00:31:46;-20064.16;;;21.03;100.00
7058;BME280;3570;43.080;25.628;2022-09-02T00:34:30;-20047.91;;;20.47;100.00
7058;BME280;3570;43.080;25.628;2022-09-02T00:37:15;-20022.84;;;19.60;100.00
7058;BME280;3570;43.080;25.628;2022-09-02T00:40:00;-20014.28;;;19.30;100.00
7058;BME280;3570;43.080;25.628;2022-09-02T00:42:45;-20003.25;;;18.92;100.00
7058;BME280;3570;43.080;25.628;2022-09-02T00:45:29;-20010.78;;;19.18;100.00
7058;BME280;3570;43.080;25.628;2022-09-02T00:48:13;-20002.09;;;18.88;100.00
7058;BME280;3570;43.080;25.628;2022-09-02T00:50:57;-20007.31;;;19.06;100.00
7058;BME280;3570;43.080;25.628;2022-09-02T00:53:43;-20022.97;;;19.60;100.00
7058;BME280;3570;43.080;25.628;2022-09-02T00:56:30;-20036.63;;;20.08;100.00
7058;BME280;3570;43.080;25.628;2022-09-02T00:59:26;-20047.50;;;20.45;100.00
7058;BME280;3570;43.080;25.628;2022-09-02T01:02:13;-20053.72;;;20.67;100.00
7058;BME280;3570;43.080;25.628;2022-09-02T01:04:59;-20072.56;;;21.32;100.00
7058;BME280;3570;43.080;25.628;2022-09-02T01:07:45;-20075.44;;;21.42;100.00
7058;BME280;3570;43.080;25.628;2022-09-02T01:10:31;-20090.06;;;21.93;100.00
7058;BME280;3570;43.080;25.628;2022-09-02T01:13:19;-20090.34;;;21.94;100.00
7058;BME280;3570;43.080;25.628;2022-09-02T01:16:25;-20099.19;;;22.25;100.00
7058;BME280;3570;43.080;25.628;2022-09-02T01:19:31;-20101.22;;;22.32;100.00
7058;BME280;3570;43.080;25.628;2022-09-02T01:22:19;-20095.72;;;22.13;100.00
7058;BME280;3570;43.080;25.628;2022-09-02T01:25:09;-20097.00;;;22.17;100.00
7058;BME280;3570;43.080;25.628;2022-09-02T01:28:01;-20093.97;;;22.07;100.00
7058;BME280;3570;43.080;25.628;2022-09-02T01:30:48;-20089.50;;;21.91;100.00
7058;BME280;3570;43.080;25.628;2022-09-02T01:33:33;-20088.47;;;21.88;100.00
7058;BME280;3570;43.080;25.628;2022-09-02T01:36:17;-20092.81;;;22.03;100.00
7058;BME280;3570;43.080;25.628;2022-09-02T01:39:02;-20078.34;;;21.52;100.00
7058;BME280;3570;43.080;25.628;2022-09-02T01:41:46;-20073.13;;;21.34;100.00
7058;BME280;3570;43.080;25.628;2022-09-02T01:44:32;-20067.34;;;21.14;100.00
7058;BME280;3570;43.080;25.628;2022-09-02T01:47:25;-20057.78;;;20.81;100.00
7058;BME280;3570;43.080;25.628;2022-09-02T01:50:09;-20065.16;;;21.07;100.00
7058;BME280;3570;43.080;25.628;2022-09-02T01:52:55;-20047.91;;;20.47;100.00
7058;BME280;3570;43.080;25.628;2022-09-02T01:55:39;-20042.41;;;20.28;100.00
7058;BME280;3570;43.080;25.628;2022-09-02T01:58:23;-20065.03;;;21.06;100.00
7058;BME280;3570;43.080;25.628;2022-09-02T02:01:08;-20082.97;;;21.69;100.00
7058;BME280;3570;43.080;25.628;2022-09-02T02:03:52;-20092.38;;;22.01;100.00
7058;BME280;3570;43.080;25.628;2022-09-02T02:06:39;-20099.19;;;22.25;100.00
7058;BME280;3570;43.080;25.628;2022-09-02T02:09:24;-20100.47;;;22.29;100.00
7058;BME280;3570;43.080;25.628;2022-09-02T02:12:09;-20100.47;;;22.29;100.00
7058;BME280;3570;43.080;25.628;2022-09-02T02:14:53;-20103.94;;;22.41;100.00
7058;BME280;3570;43.080;25.628;2022-09-02T02:17:37;-20104.97;;;22.45;100.00
7058;BME280;3570;43.080;25.628;2022-09-02T02:20:22;-20106.13;;;22.49;100.00
7058;BME280;3570;43.080;25.628;2022-09-02T02:23:06;-20102.94;;;22.38;100.00
7058;BME280;3570;43.080;25.628;2022-09-02T02:25:51;-20104.53;;;22.43;100.00
7058;BME280;3570;43.080;25.628;2022-09-02T02:28:36;-20104.53;;;22.43;100.00
7058;BME280;3570;43.080;25.628;2022-09-02T02:31:20;-20101.78;;;22.34;100.00
7058;BME280;3570;43.080;25.628;2022-09-02T02:34:03;-20095.00;;;22.10;100.00
7058;BME280;3570;43.080;25.628;2022-09-02T02:36:47;-20088.47;;;21.88;100.00
7058;BME280;3570;43.080;25.628;2022-09-02T02:39:31;-20082.25;;;21.66;100.00
7058;BME280;3570;43.080;25.628;2022-09-02T02:42:16;-20089.34;;;21.91;100.00
7058;BME280;3570;43.080;25.628;2022-09-02T02:45:00;-20087.03;;;21.83;100.00
7058;BME280;3570;43.080;25.628;2022-09-02T02:47:44;-20096.13;;;22.14;100.00
7058;BME280;3570;43.080;25.628;2022-09-02T02:50:30;-20093.38;;;22.05;100.00
7058;BME280;3570;43.080;25.628;2022-09-02T02:53:14;-20091.66;;;21.99;100.00
7058;BME280;3570;43.080;25.628;2022-09-02T02:56:00;-20096.28;;;22.15;100.00
7058;BME280;3570;43.080;25.628;2022-09-02T02:58:44;-20093.53;;;22.05;100.00
7058;BME280;3570;43.080;25.628;2022-09-02T03:01:29;-20086.59;;;21.81;100.00
7058;BME280;3570;43.080;25.628;2022-09-02T03:04:14;-20092.38;;;22.01;100.00
7058;BME280;3570;43.080;25.628;2022-09-02T03:06:58;-20091.50;;;21.98;100.00
7058;BME280;3570;43.080;25.628;2022-09-02T03:09:42;-20093.97;;;22.07;100.00
7058;BME280;3570;43.080;25.628;2022-09-02T03:12:25;-20078.19;;;21.52;100.00
7058;BME280;3570;43.080;25.628;2022-09-02T03:15:10;-20067.34;;;21.14;100.00
7058;BME280;3570;43.080;25.628;2022-09-02T03:17:56;-20075.59;;;21.43;100.00
7058;BME280;3570;43.080;25.628;2022-09-02T03:20:41;-20051.41;;;20.59;100.00
7058;BME280;3570;43.080;25.628;2022-09-02T03:23:26;-20031.38;;;19.90;100.00
7058;BME280;3570;43.080;25.628;2022-09-02T03:26:12;-20024.44;;;19.65;100.00
7058;BME280;3570;43.080;25.628;2022-09-02T03:28:56;-20013.41;;;19.27;100.00
7058;BME280;3570;43.080;25.628;2022-09-02T03:31:40;-20004.69;;;18.97;100.00
7058;BME280;3570;43.080;25.628;2022-09-02T03:34:24;-19989.31;;;18.44;100.00
7058;BME280;3570;43.080;25.628;2022-09-02T03:37:08;-19984.66;;;18.28;100.00
7058;BME280;3570;43.080;25.628;2022-09-02T03:39:52;-20001.50;;;18.86;100.00
7058;BME280;3570;43.080;25.628;2022-09-02T03:42:36;-20007.88;;;19.08;100.00
7058;BME280;3570;43.080;25.628;2022-09-02T03:45:22;-19999.19;;;18.78;100.00
7058;BME280;3570;43.080;25.628;2022-09-02T03:48:07;-20016.31;;;19.37;100.00
7058;BME280;3570;43.080;25.628;2022-09-02T03:50:51;-20022.13;;;19.57;100.00
7058;BME280;3570;43.080;25.628;2022-09-02T03:53:35;-20034.28;;;20.00;100.00
7058;BME280;3570;43.080;25.628;2022-09-02T03:56:20;-20051.97;;;20.61;100.00
7058;BME280;3570;43.080;25.628;2022-09-02T03:59:05;-20067.03;;;21.13;100.00
7058;BME280;3570;43.080;25.628;2022-09-02T04:01:49;-20064.16;;;21.03;100.00
7058;BME280;3570;43.080;25.628;2022-09-02T04:04:34;-20049.09;;;20.51;100.00
7058;BME280;3570;43.080;25.628;2022-09-02T04:07:18;-20036.91;;;20.09;100.00
7058;BME280;3570;43.080;25.628;2022-09-02T04:10:04;-20034.00;;;19.99;100.00
7058;BME280;3570;43.080;25.628;2022-09-02T04:12:49;-20023.84;;;19.63;100.00
7058;BME280;3570;43.080;25.628;2022-09-02T04:15:38;-20017.91;;;19.43;100.00
7058;BME280;3570;43.080;25.628;2022-09-02T04:18:22;-20015.00;;;19.33;100.00
7058;BME280;3570;43.080;25.628;2022-09-02T04:21:06;-20015.59;;;19.35;100.00
7058;BME280;3570;43.080;25.628;2022-09-02T04:23:51;-20012.09;;;19.23;100.00
7058;BME280;3570;43.080;25.628;2022-09-02T04:26:36;-20015.16;;;19.33;100.00
7058;BME280;3570;43.080;25.628;2022-09-02T04:29:20;-20020.09;;;19.50;100.00
7058;BME280;3570;43.080;25.628;2022-09-02T04:32:04;-20038.63;;;20.15;100.00
7058;BME280;3570;43.080;25.628;2022-09-02T04:34:49;-20051.97;;;20.61;100.00
7058;BME280;3570;43.080;25.628;2022-09-02T04:37:33;-20077.75;;;21.50;100.00
7058;BME280;3570;43.080;25.628;2022-09-02T04:40:17;-20089.50;;;21.91;100.00
7058;BME280;3570;43.080;25.628;2022-09-02T04:43:02;-20089.91;;;21.93;100.00
7058;BME280;3570;43.080;25.628;2022-09-02T04:45:47;-20088.63;;;21.88;100.00
7058;BME280;3570;43.080;25.628;2022-09-02T04:48:31;-20087.31;;;21.84;100.00
7058;BME280;3570;43.080;25.628;2022-09-02T04:51:19;-20072.84;;;21.33;100.00
7058;BME280;3570;43.080;25.628;2022-09-02T04:54:04;-20076.16;;;21.45;100.00
7058;BME280;3570;43.080;25.628;2022-09-02T04:56:48;-20074.00;;;21.37;100.00
7058;BME280;3570;43.080;25.628;2022-09-02T04:59:32;-20066.31;;;21.11;100.00
7058;BME280;3570;43.080;25.628;2022-09-02T05:02:19;-20063.72;;;21.02;100.00
7058;BME280;3570;43.080;25.628;2022-09-02T05:05:03;-20063.13;;;21.00;100.00
7058;BME280;3570;43.080;25.628;2022-09-02T05:07:48;-20061.38;;;20.94;100.00
7058;BME280;3570;43.080;25.628;2022-09-02T05:10:32;-20083.25;;;21.70;100.00
7058;BME280;3570;43.080;25.628;2022-09-02T05:13:17;-20080.06;;;21.59;100.00
7058;BME280;3570;43.080;25.628;2022-09-02T05:16:01;-20081.09;;;21.62;100.00
7058;BME280;3570;43.080;25.628;2022-09-02T05:18:46;-20090.22;;;21.94;100.00
7058;BME280;3570;43.080;25.628;2022-09-02T05:21:30;-20098.88;;;22.24;100.00
7058;BME280;3570;43.080;25.628;2022-09-02T05:24:16;-20106.41;;;22.50;100.00
7058;BME280;3570;43.080;25.628;2022-09-02T05:27:00;-20116.41;;;22.85;100.00
7058;BME280;3570;43.080;25.628;2022-09-02T05:29:44;-20124.50;;;23.13;100.00
7058;BME280;3570;43.080;25.628;2022-09-02T05:32:29;-20125.50;;;23.16;100.00
7058;BME280;3570;43.080;25.628;2022-09-02T05:35:14;-20123.03;;;23.08;100.00
7058;BME280;3570;43.080;25.628;2022-09-02T05:37:59;-20137.38;;;23.58;100.00
7058;BME280;3570;43.080;25.628;2022-09-02T05:40:42;-20152.81;;;24.11;100.00
7058;BME280;3570;43.080;25.628;2022-09-02T05:43:26;-20164.50;;;24.52;100.00
7058;BME280;3570;43.080;25.628;2022-09-02T05:46:13;-20167.41;;;24.62;100.00
7058;BME280;3570;43.080;25.628;2022-09-02T05:49:00;-20178.38;;;25.00;100.00
7058;BME280;3570;43.080;25.628;2022-09-02T05:52:00;-20170.59;;;24.73;100.00
7058;BME280;3570;43.080;25.628;2022-09-02T05:54:44;-20187.59;;;25.33;100.00
7058;BME280;3570;43.080;25.628;2022-09-02T05:57:29;-20187.31;;;25.32;100.00
7058;BME280;3570;43.080;25.628;2022-09-02T06:00:13;-20190.50;;;25.43;100.00
7058;BME280;3570;43.080;25.628;2022-09-02T06:02:57;-20191.66;;;25.47;100.00
7058;BME280;3570;43.080;25.628;2022-09-02T06:05:52;-20186.44;;;25.29;100.00
7058;BME280;3570;43.080;25.628;2022-09-02T06:08:37;-20181.13;;;25.10;100.00
7058;BME280;3570;43.080;25.628;2022-09-02T06:11:21;-20180.81;;;25.09;100.00
7058;BME280;3570;43.080;25.628;2022-09-02T06:14:06;-20186.59;;;25.29;100.00
7058;BME280;3570;43.080;25.628;2022-09-02T06:16:51;-20187.47;;;25.32;100.00
7058;BME280;3570;43.080;25.628;2022-09-02T06:19:37;-20182.84;;;25.16;100.00
7058;BME280;3570;43.080;25.628;2022-09-02T06:22:22;-20185.00;;;25.24;100.00
7058;BME280;3570;43.080;25.628;2022-09-02T06:25:06;-20172.31;;;24.79;100.00
7058;BME280;3570;43.080;25.628;2022-09-02T06:27:50;-20186.31;;;25.28;100.00
7058;BME280;3570;43.080;25.628;2022-09-02T06:30:37;-20191.94;;;25.48;100.00
7058;BME280;3570;43.080;25.628;2022-09-02T06:33:22;-20199.59;;;25.74;100.00
7058;BME280;3570;43.080;25.628;2022-09-02T06:36:08;-20205.50;;;25.95;100.00
7058;BME280;3570;43.080;25.628;2022-09-02T06:38:55;-20213.13;;;26.22;100.00
7058;BME280;3570;43.080;25.628;2022-09-02T06:41:40;-20216.31;;;26.33;100.00
7058;BME280;3570;43.080;25.628;2022-09-02T06:44:25;-20213.28;;;26.22;100.00
7058;BME280;3570;43.080;25.628;2022-09-02T06:47:09;-20223.66;;;26.58;100.00
7058;BME280;3570;43.080;25.628;2022-09-02T06:49:53;-20238.06;;;27.09;100.00
7058;BME280;3570;43.080;25.628;2022-09-02T06:52:38;-20244.69;;;27.32;100.00
7058;BME280;3570;43.080;25.628;2022-09-02T06:55:22;-20259.66;;;27.84;100.00
7058;BME280;3570;43.080;25.628;2022-09-02T06:58:07;-20264.25;;;28.00;100.00
7058;BME280;3570;43.080;25.628;2022-09-02T07:00:51;-20269.59;;;28.19;100.00
7058;BME280;3570;43.080;25.628;2022-09-02T07:03:35;-20277.94;;;28.48;100.00
7058;BME280;3570;43.080;25.628;2022-09-02T07:06:41;-20280.53;;;28.57;100.00
7058;BME280;3570;43.080;25.628;2022-09-02T07:09:26;-20286.84;;;28.79;100.00
7058;BME280;3570;43.080;25.628;2022-09-02T07:12:17;-20293.31;;;29.02;100.00
7058;BME280;3570;43.080;25.628;2022-09-02T07:15:03;-20298.19;;;29.19;100.00
7058;BME280;3570;43.080;25.628;2022-09-02T07:17:47;-20301.66;;;29.31;90.79
7058;BME280;3570;43.080;25.628;2022-09-02T07:20:32;-20310.28;;;29.61;87.48
7058;BME280;3570;43.080;25.628;2022-09-02T07:23:17;-20308.25;;;29.54;86.17
7058;BME280;3570;43.080;25.628;2022-09-02T07:26:01;-20301.06;;;29.29;86.17
7058;BME280;3570;43.080;25.628;2022-09-02T07:28:46;-20308.25;;;29.54;84.89
7058;BME280;3570;43.080;25.628;2022-09-02T07:31:30;-20313.00;;;29.71;85.13
7058;BME280;3570;43.080;25.628;2022-09-02T07:34:15;-20320.19;;;29.96;81.91
7058;BME280;3570;43.080;25.628;2022-09-02T07:36:59;-20307.41;;;29.51;82.72
7058;BME280;3570;43.080;25.628;2022-09-02T07:39:43;-20299.78;;;29.24;82.38
7058;BME280;3570;43.080;25.628;2022-09-02T07:42:27;-20305.66;;;29.45;83.12
7058;BME280;3570;43.080;25.628;2022-09-02T07:45:12;-20314.88;;;29.77;82.21
7058;BME280;3570;43.080;25.628;2022-09-02T07:47:57;-20312.28;;;29.68;82.64
7058;BME280;3570;43.080;25.628;2022-09-02T07:50:42;-20317.16;;;29.85;81.48
7058;BME280;3570;43.080;25.628;2022-09-02T07:53:27;-20319.19;;;29.92;79.53
7058;BME280;3570;43.080;25.628;2022-09-02T07:56:12;-20322.34;;;30.03;78.49
7058;BME280;3570;43.080;25.628;2022-09-02T07:58:57;-20304.38;;;29.40;80.91
7058;BME280;3570;43.080;25.628;2022-09-02T08:01:41;-20317.59;;;29.87;82.15
7058;BME280;3570;43.080;25.628;2022-09-02T08:04:26;-20331.81;;;30.36;78.35
7058;BME280;3570;43.080;25.628;2022-09-02T08:07:10;-20332.97;;;30.40;78.25
7058;BME280;3570;43.080;25.628;2022-09-02T08:09:55;-20340.56;;;30.67;78.06
7058;BME280;3570;43.080;25.628;2022-09-02T08:12:39;-20348.31;;;30.94;75.83
7058;BME280;3570;43.080;25.628;2022-09-02T08:15:24;-20355.19;;;31.18;75.60
7058;BME280;3570;43.080;25.628;2022-09-02T08:18:11;-20360.50;;;31.37;75.02
7058;BME280;3570;43.080;25.628;2022-09-02T08:20:55;-20365.94;;;31.56;72.72
7058;BME280;3570;43.080;25.628;2022-09-02T08:23:39;-20365.22;;;31.54;71.65
7058;BME280;3570;43.080;25.628;2022-09-02T08:26:23;-20361.66;;;31.41;73.22
7058;BME280;3570;43.080;25.628;2022-09-02T08:29:09;-20361.66;;;31.41;73.31
7058;BME280;3570;43.080;25.628;2022-09-02T08:31:53;-20351.91;;;31.07;73.54
7058;BME280;3570;43.080;25.628;2022-09-02T08:34:37;-20335.69;;;30.50;74.89
7058;BME280;3570;43.080;25.628;2022-09-02T08:37:21;-20335.41;;;30.49;76.06
7058;BME280;3570;43.080;25.628;2022-09-02T08:40:12;-20347.88;;;30.93;74.09
7058;BME280;3570;43.080;25.628;2022-09-02T08:42:57;-20343.16;;;30.76;72.88
7058;BME280;3570;43.080;25.628;2022-09-02T08:45:42;-20330.22;;;30.31;74.26
7058;BME280;3570;43.080;25.628;2022-09-02T08:48:41;-20316.31;;;29.82;75.66
7058;BME280;3570;43.080;25.628;2022-09-02T08:51:47;-20298.78;;;29.21;76.13
7058;BME280;3570;43.080;25.628;2022-09-02T08:54:53;-20296.63;;;29.13;78.55
7058;BME280;3570;43.080;25.628;2022-09-02T08:57:42;-20303.66;;;29.38;78.86
7058;BME280;3570;43.080;25.628;2022-09-02T09:00:35;-20334.41;;;30.45;77.45
7058;BME280;3570;43.080;25.628;2022-09-02T09:03:32;-20334.25;;;30.45;74.94
7058;BME280;3570;43.080;25.628;2022-09-02T09:06:31;-20338.13;;;30.58;73.29
7058;BME280;3570;43.080;25.628;2022-09-02T09:09:35;-20339.72;;;30.64;74.14
7058;BME280;3570;43.080;25.628;2022-09-02T09:15:43;-20331.66;;;30.36;73.37
7058;BME280;3570;43.080;25.628;2022-09-02T09:21:18;-20317.16;;;29.85;73.83
7058;BME280;3570;43.080;25.628;2022-09-02T09:24:20;-20319.31;;;29.93;77.25
7058;BME280;3570;43.080;25.628;2022-09-02T09:27:12;-20306.69;;;29.48;79.26
7058;BME280;3570;43.080;25.628;2022-09-02T09:29:57;-20294.19;;;29.05;81.43
7058;BME280;3570;43.080;25.628;2022-09-02T09:32:45;-20281.53;;;28.60;87.84
7058;BME280;3570;43.080;25.628;2022-09-02T09:35:50;-20279.38;;;28.53;86.90
7058;BME280;3570;43.080;25.628;2022-09-02T09:38:36;-20278.34;;;28.49;89.73
7058;BME280;3570;43.080;25.628;2022-09-02T09:41:22;-20281.53;;;28.60;89.74
7058;BME280;3570;43.080;25.628;2022-09-02T09:44:07;-20281.53;;;28.60;87.52
7058;BME280;3570;43.080;25.628;2022-09-02T09:47:03;-20286.28;;;28.77;84.79
7058;BME280;3570;43.080;25.628;2022-09-02T09:50:12;-20281.81;;;28.61;83.44
7058;BME280;3570;43.080;25.628;2022-09-02T09:53:18;-20281.66;;;28.61;84.54
7058;BME280;3570;43.080;25.628;2022-09-02T09:56:22;-20273.63;;;28.33;84.68
7058;BME280;3570;43.080;25.628;2022-09-02T09:59:08;-20279.50;;;28.53;85.96
7058;BME280;3570;43.080;25.628;2022-09-02T10:02:19;-20275.78;;;28.40;88.65
7058;BME280;3570;43.080;25.628;2022-09-02T10:05:37;-20269.72;;;28.19;93.27
7058;BME280;3570;43.080;25.628;2022-09-02T10:08:24;-20261.38;;;27.90;91.30
7058;BME280;3570;43.080;25.628;2022-09-02T10:11:20;-20261.81;;;27.91;92.90
7058;BME280;3570;43.080;25.628;2022-09-02T10:14:07;-20268.59;;;28.15;92.60
7058;BME280;3570;43.080;25.628;2022-09-02T10:20:12;-20256.78;;;27.74;97.19
7058;BME280;3570;43.080;25.628;2022-09-02T10:40:58;-20216.75;;;26.34;100.00
7058;BME280;3570;43.080;25.628;2022-09-02T10:49:56;-20190.50;;;25.43;100.00
7058;BME280;3570;43.080;25.628;2022-09-02T10:58:54;-20129.41;;;23.30;100.00
7058;BME280;3570;43.080;25.628;2022-09-02T11:01:58;-20127.25;;;23.22;100.00
7058;BME280;3570;43.080;25.628;2022-09-02T11:04:51;-20126.53;;;23.20;100.00
7058;BME280;3570;43.080;25.628;2022-09-02T11:08:00;-20129.56;;;23.30;100.00
7058;BME280;3570;43.080;25.628;2022-09-02T11:20:13;-20171.16;;;24.75;100.00
7058;BME280;3570;43.080;25.628;2022-09-02T11:25:54;-20186.88;;;25.30;100.00
7058;BME280;3570;43.080;25.628;2022-09-02T11:32:18;-20206.34;;;25.98;100.00
7058;BME280;3570;43.080;25.628;2022-09-02T11:35:08;-20228.56;;;26.75;100.00
7058;BME280;3570;43.080;25.628;2022-09-02T11:38:00;-20263.97;;;27.99;100.00
7058;BME280;3570;43.080;25.628;2022-09-02T11:43:55;-20284.41;;;28.70;100.00
7058;BME280;3570;43.080;25.628;2022-09-02T11:56:11;-20253.03;;;27.61;100.00
7058;BME280;3570;43.080;25.628;2022-09-02T11:58:56;-20212.13;;;26.18;100.00
7058;BME280;3570;43.080;25.628;2022-09-02T12:01:51;-20200.00;;;25.76;100.00
7058;BME280;3570;43.080;25.628;2022-09-02T12:04:36;-20174.63;;;24.87;100.00
7058;BME280;3570;43.080;25.628;2022-09-02T12:07:22;-20170.59;;;24.73;100.00
7058;BME280;3570;43.080;25.628;2022-09-02T12:10:07;-20160.47;;;24.38;100.00
7058;BME280;3570;43.080;25.628;2022-09-02T12:15:36;-20144.72;;;23.83;100.00
7058;BME280;3570;43.080;25.628;2022-09-02T12:18:28;-20128.69;;;23.27;100.00
7058;BME280;3570;43.080;25.628;2022-09-02T12:21:15;-20106.41;;;22.50;100.00
7058;BME280;3570;43.080;25.628;2022-09-02T12:24:01;-20084.13;;;21.73;100.00
7058;BME280;3570;43.080;25.628;2022-09-02T12:29:32;-20076.03;;;21.44;100.00
7058;BME280;3570;43.080;25.628;2022-09-02T12:41:20;-20072.25;;;21.31;100.00
7058;BME280;3570;43.080;25.628;2022-09-02T12:44:23;-20070.81;;;21.26;100.00
7058;BME280;3570;43.080;25.628;2022-09-02T12:56:22;-20061.97;;;20.96;100.00
7058;BME280;3570;43.080;25.628;2022-09-02T12:59:07;-20058.78;;;20.85;100.00
7058;BME280;3570;43.080;25.628;2022-09-02T13:02:16;-20065.31;;;21.07;100.00
7058;BME280;3570;43.080;25.628;2022-09-02T13:08:15;-20067.47;;;21.15;100.00
7058;BME280;3570;43.080;25.628;2022-09-02T13:33:00;-20120.88;;;23.00;100.00
7058;BME280;3570;43.080;25.628;2022-09-02T13:35:52;-20124.50;;;23.13;100.00
7058;BME280;3570;43.080;25.628;2022-09-02T13:38:37;-20133.88;;;23.46;100.00
7058;BME280;3570;43.080;25.628;2022-09-02T13:41:31;-20138.94;;;23.63;100.00
7058;BME280;3570;43.080;25.628;2022-09-02T13:44:34;-20142.13;;;23.74;100.00
7058;BME280;3570;43.080;25.628;2022-09-02T13:47:18;-20148.06;;;23.95;100.00
7058;BME280;3570;43.080;25.628;2022-09-02T13:50:06;-20151.66;;;24.07;100.00
7058;BME280;3570;43.080;25.628;2022-09-02T13:53:05;-20154.69;;;24.18;100.00
7058;BME280;3570;43.080;25.628;2022-09-02T13:55:53;-20156.72;;;24.25;100.00
7058;BME280;3570;43.080;25.628;2022-09-02T13:58:45;-20156.56;;;24.24;100.00
7058;BME280;3570;43.080;25.628;2022-09-02T14:01:33;-20150.06;;;24.02;100.00
7058;BME280;3570;43.080;25.628;2022-09-02T14:04:17;-20153.97;;;24.15;100.00
7058;BME280;3570;43.080;25.628;2022-09-02T14:07:03;-20155.56;;;24.21;100.00
7058;BME280;3570;43.080;25.628;2022-09-02T14:09:47;-20162.22;;;24.44;100.00
7058;BME280;3570;43.080;25.628;2022-09-02T14:12:34;-20170.88;;;24.74;100.00
7058;BME280;3570;43.080;25.628;2022-09-02T14:15:27;-20181.53;;;25.11;100.00
7058;BME280;3570;43.080;25.628;2022-09-02T14:18:17;-20196.56;;;25.64;100.00
7058;BME280;3570;43.080;25.628;2022-09-02T14:21:16;-20210.69;;;26.13;100.00
7058;BME280;3570;43.080;25.628;2022-09-02T14:24:01;-20226.41;;;26.68;100.00
7058;BME280;3570;43.080;25.628;2022-09-02T14:26:46;-20235.03;;;26.98;100.00
7058;BME280;3570;43.080;25.628;2022-09-02T14:29:32;-20234.47;;;26.96;100.00
7058;BME280;3570;43.080;25.628;2022-09-02T14:32:22;-20238.22;;;27.09;100.00
7058;BME280;3570;43.080;25.628;2022-09-02T14:35:19;-20214.59;;;26.27;100.00
7058;BME280;3570;43.080;25.628;2022-09-02T14:38:03;-20221.63;;;26.51;100.00
7058;BME280;3570;43.080;25.628;2022-09-02T14:40:47;-20226.53;;;26.68;100.00
7058;BME280;3570;43.080;25.628;2022-09-02T14:43:39;-20227.69;;;26.72;100.00
7058;BME280;3570;43.080;25.628;2022-09-02T14:49:32;-20230.00;;;26.80;100.00
7058;BME280;3570;43.080;25.628;2022-09-02T14:52:24;-20224.94;;;26.63;100.00
7058;BME280;3570;43.080;25.628;2022-09-02T14:58:31;-20255.63;;;27.70;100.00
7058;BME280;3570;43.080;25.628;2022-09-02T15:01:15;-20273.47;;;28.32;100.00
7058;BME280;3570;43.080;25.628;2022-09-02T15:04:00;-20330.81;;;30.33;100.00
7058;BME280;3570;43.080;25.628;2022-09-02T15:06:45;-20339.00;;;30.62;100.00
7058;BME280;3570;43.080;25.628;2022-09-02T15:09:29;-20324.34;;;30.10;100.00
7058;BME280;3570;43.080;25.628;2022-09-02T15:12:14;-20289.28;;;28.88;100.00
7058;BME280;3570;43.080;25.628;2022-09-02T15:14:59;-20273.19;;;28.31;100.00
7058;BME280;3570;43.080;25.628;2022-09-02T15:17:43;-20263.25;;;27.97;100.00
7058;BME280;3570;43.080;25.628;2022-09-02T15:20:27;-20255.34;;;27.69;100.00
7058;BME280;3570;43.080;25.628;2022-09-02T15:23:10;-20240.22;;;27.16;100.00
7058;BME280;3570;43.080;25.628;2022-09-02T15:25:54;-20234.31;;;26.95;100.00
7058;BME280;3570;43.080;25.628;2022-09-02T15:28:38;-20212.13;;;26.18;100.00
7058;BME280;3570;43.080;25.628;2022-09-02T15:31:22;-20207.38;;;26.01;100.00
7058;BME280;3570;43.080;25.628;2022-09-02T15:34:06;-20202.63;;;25.85;100.00
7058;BME280;3570;43.080;25.628;2022-09-02T15:36:50;-20198.56;;;25.71;100.00
7058;BME280;3570;43.080;25.628;2022-09-02T15:39:35;-20200.44;;;25.77;100.00
7058;BME280;3570;43.080;25.628;2022-09-02T15:42:19;-20197.72;;;25.68;100.00
7058;BME280;3570;43.080;25.628;2022-09-02T15:45:05;-20198.28;;;25.70;100.00
7058;BME280;3570;43.080;25.628;2022-09-02T15:47:51;-20191.34;;;25.46;100.00
7058;BME280;3570;43.080;25.628;2022-09-02T15:50:35;-20188.75;;;25.37;100.00
7058;BME280;3570;43.080;25.628;2022-09-02T15:53:19;-20183.00;;;25.16;100.00
7058;BME280;3570;43.080;25.628;2022-09-02T15:56:03;-20171.16;;;24.75;100.00
7058;BME280;3570;43.080;25.628;2022-09-02T15:58:47;-20156.72;;;24.25;100.00
7058;BME280;3570;43.080;25.628;2022-09-02T16:01:32;-20149.63;;;24.00;100.00
7058;BME280;3570;43.080;25.628;2022-09-02T16:04:17;-20148.06;;;23.95;100.00
7058;BME280;3570;43.080;25.628;2022-09-02T16:07:01;-20148.06;;;23.95;100.00
7058;BME280;3570;43.080;25.628;2022-09-02T16:09:45;-20155.72;;;24.21;100.00
7058;BME280;3570;43.080;25.628;2022-09-02T16:12:30;-20152.81;;;24.11;100.00
7058;BME280;3570;43.080;25.628;2022-09-02T16:15:14;-20153.09;;;24.12;100.00
7058;BME280;3570;43.080;25.628;2022-09-02T16:17:58;-20150.50;;;24.03;100.00
7058;BME280;3570;43.080;25.628;2022-09-02T16:20:42;-20153.41;;;24.13;100.00
7058;BME280;3570;43.080;25.628;2022-09-02T16:23:27;-20154.56;;;24.17;100.00
7058;BME280;3570;43.080;25.628;2022-09-02T16:29:05;-20153.41;;;24.13;100.00
7058;BME280;3570;43.080;25.628;2022-09-02T16:31:50;-20157.28;;;24.27;100.00
7058;BME280;3570;43.080;25.628;2022-09-02T16:34:34;-20154.41;;;24.17;100.00
7058;BME280;3570;43.080;25.628;2022-09-02T16:37:18;-20141.97;;;23.74;100.00
7058;BME280;3570;43.080;25.628;2022-09-02T16:40:02;-20132.16;;;23.40;100.00
7058;BME280;3570;43.080;25.628;2022-09-02T16:42:48;-20132.72;;;23.42;100.00